createdAt,value
2019-01-05T00:00:48.135Z,34.90
2019-01-05T00:05:56.743Z,31.67
2019-01-05T00:10:20.782Z,27.03
2019-01-05T00:14:27.712Z,27.80
2019-01-05T00:18:35.581Z,24.83
2019-01-05T00:22:43.900Z,24.00
2019-01-05T00:27:27.107Z,24.83
2019-01-05T00:31:35.089Z,21.77
2019-01-05T00:35:51.078Z,23.53
2019-01-05T00:40:19.485Z,19.83
2019-01-05T00:44:29.528Z,18.47
2019-01-05T00:48:39.546Z,17.63
2019-01-05T00:52:47.628Z,20.13
2019-01-05T00:57:29.892Z,21.57
2019-01-05T01:01:37.840Z,22.70
2019-01-05T01:05:45.972Z,20.10
2019-01-05T01:11:56.950Z,18.10
2019-01-05T01:16:06.829Z,15.03
2019-01-05T01:20:17.826Z,16.87
2019-01-05T01:25:28.530Z,16.43
2019-01-05T01:31:41.322Z,18.13
2019-01-05T01:35:49.316Z,16.30
2019-01-05T01:41:02.133Z,15.20
2019-01-05T01:45:13.991Z,16.17
2019-01-05T01:49:23.881Z,17.20
2019-01-05T01:55:38.749Z,16.77
2019-01-05T02:02:14.894Z,18.30
2019-01-05T02:06:24.152Z,18.57
2019-01-05T02:10:33.431Z,17.73
2019-01-05T02:14:57.427Z,17.43
2019-01-05T02:21:27.655Z,15.27
2019-01-05T02:26:46.541Z,14.90
2019-01-05T02:31:06.353Z,16.37
2019-01-05T02:35:56.765Z,16.67
2019-01-05T02:41:07.352Z,16.50
2019-01-05T02:49:43.826Z,14.17
2019-01-05T02:54:16.416Z,13.47
2019-01-05T02:59:41.211Z,16.33
2019-01-05T03:05:01.180Z,13.47
2019-01-05T03:09:30.108Z,13.13
2019-01-05T03:16:53.141Z,13.57
2019-01-05T03:21:16.176Z,10.67
2019-01-05T03:26:36.926Z,12.43
2019-01-05T03:31:14.908Z,11.63
2019-01-05T03:36:53.897Z,12.27
2019-01-05T03:43:24.497Z,11.80
2019-01-05T03:47:55.328Z,10.47
2019-01-05T03:52:20.121Z,11.63
2019-01-05T03:57:16.270Z,11.63
2019-01-05T04:01:35.904Z,9.93
2019-01-05T04:08:02.450Z,9.13
2019-01-05T04:14:28.925Z,10.73
2019-01-05T04:19:48.749Z,12.83
2019-01-05T04:25:06.452Z,10.60
2019-01-05T04:29:27.484Z,11.73
2019-01-05T04:34:43.934Z,11.27
2019-01-05T04:39:21.053Z,11.90
2019-01-05T04:47:58.135Z,10.77
2019-01-05T04:53:15.054Z,11.07
2019-01-05T05:01:53.344Z,11.83
2019-01-05T05:06:23.214Z,11.93
2019-01-05T05:10:41.284Z,12.20
2019-01-05T05:17:34.259Z,12.00
2019-01-05T05:22:06.252Z,11.60
2019-01-05T05:27:03.359Z,10.27
2019-01-05T05:32:28.205Z,10.93
2019-01-05T05:38:13.682Z,11.67
2019-01-05T05:45:48.464Z,13.27
2019-01-05T05:50:44.503Z,12.17
2019-01-05T05:55:06.760Z,12.07
2019-01-05T06:00:08.920Z,10.93
2019-01-05T06:04:27.919Z,10.30
2019-01-05T06:08:57.785Z,9.60
2019-01-05T06:13:28.553Z,8.70
2019-01-05T06:17:50.467Z,9.20
2019-01-05T06:22:27.377Z,8.27
2019-01-05T06:26:50.407Z,8.63
2019-01-05T06:31:13.143Z,8.63
2019-01-05T06:35:47.642Z,8.50
2019-01-05T06:43:19.233Z,10.00
2019-01-05T06:48:53.268Z,8.80
2019-01-05T06:54:15.792Z,9.03
2019-01-05T06:59:13.957Z,9.13
2019-01-05T07:04:40.873Z,9.00
2019-01-05T07:09:05.978Z,8.60
2019-01-05T07:13:59.093Z,9.53
2019-01-05T07:20:33.225Z,8.17
2019-01-05T07:27:25.354Z,9.03
2019-01-05T07:31:46.429Z,7.73
2019-01-05T07:36:04.604Z,8.00
2019-01-05T07:41:29.492Z,7.90
2019-01-05T07:46:27.053Z,6.73
2019-01-05T07:51:45.005Z,7.53
2019-01-05T07:59:14.883Z,7.47
2019-01-05T08:03:48.923Z,6.83
2019-01-05T08:08:07.834Z,6.77
2019-01-05T08:13:03.129Z,6.00
2019-01-05T08:20:26.139Z,4.90
2019-01-05T08:25:47.131Z,5.80
2019-01-05T08:30:25.947Z,4.50
2019-01-05T08:35:00.978Z,3.60
2019-01-05T08:39:26.223Z,4.83
2019-01-05T08:43:51.273Z,3.90
2019-01-05T08:48:43.748Z,4.53
2019-01-05T08:55:08.774Z,4.23
2019-01-05T09:00:06.294Z,3.50
2019-01-05T09:06:34.654Z,4.00
2019-01-05T09:13:00.006Z,3.80
2019-01-05T09:18:40.011Z,2.97
2019-01-05T09:24:03.997Z,2.63
2019-01-05T09:28:46.028Z,3.00
2019-01-05T09:33:10.816Z,2.93
2019-01-05T09:37:31.803Z,3.10
2019-01-05T09:42:53.525Z,2.37
2019-01-05T09:48:22.078Z,5.17
2019-01-05T09:54:48.117Z,2.90
2019-01-05T09:59:22.104Z,3.00
2019-01-05T10:03:47.157Z,2.50
2019-01-05T10:08:38.563Z,3.00
2019-01-05T10:13:09.601Z,2.97
2019-01-05T10:18:39.472Z,2.30
2019-01-05T10:23:05.518Z,2.53
2019-01-05T10:27:25.035Z,2.00
2019-01-05T10:32:58.960Z,2.23
2019-01-05T10:37:18.112Z,2.80
2019-01-05T10:41:40.353Z,2.50
2019-01-05T10:46:59.037Z,2.50
2019-01-05T10:53:34.155Z,2.20
2019-01-05T10:57:53.281Z,2.03
2019-01-05T11:02:13.150Z,2.93
2019-01-05T11:09:07.584Z,2.33
2019-01-05T11:13:34.708Z,2.10
2019-01-05T11:17:57.525Z,2.60
2019-01-05T11:24:33.100Z,2.27
2019-01-05T11:29:09.018Z,2.23
2019-01-05T11:34:20.523Z,2.40
2019-01-05T11:38:41.502Z,2.10
2019-01-05T11:44:21.587Z,1.70
2019-01-05T11:53:49.806Z,2.53
2019-01-05T11:59:07.521Z,2.63
2019-01-05T12:03:31.731Z,3.33
2019-01-05T12:08:55.085Z,2.07
2019-01-05T12:13:54.275Z,2.80
2019-01-05T12:18:32.620Z,2.53
2019-01-05T12:27:05.892Z,4.40
2019-01-05T12:32:31.162Z,2.00
2019-01-05T12:37:00.092Z,10.03
2019-01-05T12:41:17.965Z,20.83
2019-01-05T12:47:53.563Z,39.70
2019-01-05T12:54:22.263Z,2.80
2019-01-05T13:00:45.177Z,2.67
2019-01-05T13:06:11.590Z,2.47
2019-01-05T13:10:33.022Z,3.53
2019-01-05T13:15:02.359Z,2.07
2019-01-05T13:20:28.821Z,2.30
2019-01-05T13:27:51.403Z,3.27
2019-01-05T13:32:12.431Z,2.47
2019-01-05T13:37:34.114Z,2.70
2019-01-05T13:41:59.289Z,2.53
2019-01-05T13:47:22.278Z,2.73
2019-01-05T13:51:50.016Z,2.50
2019-01-05T13:56:02.556Z,2.67
2019-01-05T14:00:11.515Z,3.53
2019-01-05T14:05:19.053Z,2.63
2019-01-05T14:09:29.870Z,2.90
2019-01-05T14:14:12.380Z,2.30
2019-01-05T14:18:20.490Z,3.80
2019-01-05T14:23:32.086Z,5.70
2019-01-05T14:29:45.054Z,4.53
2019-01-05T14:34:59.591Z,4.70
2019-01-05T14:39:19.853Z,4.40
2019-01-05T14:43:27.510Z,3.20
2019-01-05T14:47:35.501Z,4.17
2019-01-05T14:51:44.014Z,3.80
2019-01-05T14:56:02.889Z,4.73
2019-01-05T15:00:13.759Z,4.30
2019-01-05T15:04:22.068Z,6.37
2019-01-05T15:08:30.274Z,4.80
2019-01-05T15:12:41.170Z,3.57
2019-01-05T15:16:52.030Z,8.20
2019-01-05T15:20:59.095Z,4.60
2019-01-05T15:26:12.963Z,5.70
2019-01-05T15:31:19.524Z,4.57
2019-01-05T15:36:25.433Z,5.57
2019-01-05T15:40:33.384Z,5.13
2019-01-05T15:44:42.173Z,8.17
2019-01-05T15:48:51.813Z,5.62
2019-01-05T15:53:00.127Z,9.63
2019-01-05T15:57:24.344Z,5.73
2019-01-05T16:01:32.665Z,5.40
2019-01-05T16:06:41.575Z,11.63
2019-01-05T16:10:49.635Z,5.77
2019-01-05T16:15:05.472Z,22.80
2019-01-05T16:19:18.230Z,6.90
2019-01-05T16:23:30.149Z,6.77
2019-01-05T16:29:44.076Z,9.07
2019-01-05T16:33:54.670Z,5.23
2019-01-05T16:38:08.813Z,6.60
2019-01-05T16:43:20.554Z,14.70
2019-01-05T16:47:28.543Z,4.70
2019-01-05T16:51:36.573Z,6.20
2019-01-05T16:55:44.702Z,5.43
2019-01-05T16:59:52.529Z,6.03
2019-01-05T17:04:00.494Z,5.37
2019-01-05T17:08:08.394Z,6.60
2019-01-05T17:12:29.171Z,6.43
2019-01-05T17:16:38.187Z,5.10
2019-01-05T17:20:46.233Z,12.40
2019-01-05T17:24:54.042Z,15.47
2019-01-05T17:29:04.908Z,14.87
2019-01-05T17:33:19.705Z,8.87
2019-01-05T17:37:27.930Z,7.60
2019-01-05T17:42:33.640Z,5.47
2019-01-05T17:46:42.004Z,4.90
2019-01-05T17:51:07.091Z,5.37
2019-01-05T17:55:29.144Z,5.77
2019-01-05T17:59:36.240Z,5.03
2019-01-05T18:03:43.214Z,4.73
2019-01-05T18:07:51.304Z,4.70
2019-01-05T18:11:59.568Z,4.47
2019-01-05T18:16:11.574Z,4.13
2019-01-05T18:20:19.544Z,4.50
2019-01-05T18:25:31.048Z,4.63
2019-01-05T18:29:37.987Z,6.40
2019-01-05T18:34:45.680Z,3.50
2019-01-05T18:38:54.638Z,6.27
2019-01-05T18:44:04.424Z,4.53
2019-01-05T18:48:11.381Z,3.90
2019-01-05T18:52:25.223Z,4.23
2019-01-05T18:56:30.461Z,3.63
2019-01-05T19:00:38.305Z,3.70
2019-01-05T19:04:54.301Z,4.63
2019-01-05T19:09:02.365Z,5.83
2019-01-05T19:13:19.161Z,7.70
2019-01-05T19:17:26.924Z,6.13
2019-01-05T19:23:40.158Z,3.77
2019-01-05T19:28:20.126Z,4.10
2019-01-05T19:34:36.936Z,4.00
2019-01-05T19:38:48.465Z,3.97
2019-01-05T19:44:55.532Z,3.67
2019-01-05T19:50:01.827Z,4.43
2019-01-05T19:54:11.763Z,3.80
2019-01-05T19:58:19.901Z,4.77
2019-01-05T20:02:28.697Z,7.20
2019-01-05T20:06:36.673Z,8.67
2019-01-05T20:12:51.698Z,10.13
2019-01-05T20:16:59.809Z,12.57
2019-01-05T20:21:07.943Z,5.27
2019-01-05T20:25:15.998Z,5.43
2019-01-05T20:29:27.994Z,6.43
2019-01-05T20:35:39.781Z,5.47
2019-01-05T20:41:56.183Z,5.70
2019-01-05T20:47:04.960Z,5.67
2019-01-05T20:52:10.518Z,22.37
2019-01-05T20:57:18.086Z,7.73
2019-01-05T21:01:27.162Z,5.73
2019-01-05T21:07:38.496Z,5.27
2019-01-05T21:13:52.733Z,6.00
2019-01-05T21:18:58.636Z,4.13
2019-01-05T21:23:07.601Z,4.93
2019-01-05T21:27:15.632Z,7.70
2019-01-05T21:31:29.435Z,13.73
2019-01-05T21:35:37.898Z,4.83
2019-01-05T21:40:48.731Z,4.30
2019-01-05T21:44:57.234Z,5.03
2019-01-05T21:49:39.095Z,5.53
2019-01-05T21:53:53.045Z,4.47
2019-01-05T21:58:58.850Z,3.67
2019-01-05T22:03:41.735Z,4.93
2019-01-05T22:07:52.601Z,6.27
2019-01-05T22:12:00.626Z,9.40
2019-01-05T22:17:10.542Z,6.17
2019-01-05T22:21:19.901Z,4.43
2019-01-05T22:25:27.992Z,4.30
2019-01-05T22:29:47.093Z,4.60
2019-01-05T22:33:55.034Z,4.27
2019-01-05T22:39:03.219Z,4.60
2019-01-05T22:43:21.341Z,5.50
2019-01-05T22:49:32.636Z,5.93
2019-01-05T22:54:15.020Z,5.90
2019-01-05T22:59:23.839Z,6.33
2019-01-05T23:03:33.690Z,6.37
2019-01-05T23:07:41.582Z,5.90
2019-01-05T23:11:51.371Z,5.60
2019-01-05T23:15:59.391Z,5.73
2019-01-05T23:20:10.180Z,5.67
2019-01-05T23:24:20.622Z,5.37
2019-01-05T23:30:31.351Z,5.63
2019-01-05T23:36:45.042Z,5.67
2019-01-05T23:41:55.613Z,6.07
2019-01-05T23:46:04.442Z,5.63
2019-01-05T23:50:14.447Z,6.50
2019-01-05T23:54:21.551Z,6.40
2019-01-05T23:58:31.990Z,6.30
